createdAt,value
2023-02-02T00:00:53.903Z,5.46
2023-02-02T00:03:39.502Z,5.33
2023-02-02T00:06:26.739Z,5.25
2023-02-02T00:09:19.493Z,5.37
2023-02-02T00:12:05.128Z,5.36
2023-02-02T00:14:50.406Z,5.39
2023-02-02T00:17:36.091Z,5.34
2023-02-02T00:20:22.533Z,5.23
2023-02-02T00:23:08.111Z,5.17
2023-02-02T00:25:53.523Z,5.14
2023-02-02T00:28:39.104Z,5.15
2023-02-02T00:31:24.595Z,5.06
2023-02-02T00:34:14.520Z,4.93
2023-02-02T00:37:00.102Z,4.86
2023-02-02T00:39:45.415Z,4.92
2023-02-02T00:42:31.025Z,4.95
2023-02-02T00:45:16.886Z,5.06
2023-02-02T00:48:03.160Z,4.94
2023-02-02T00:50:48.351Z,4.99
2023-02-02T00:53:33.845Z,5.03
2023-02-02T00:56:19.276Z,5.03
2023-02-02T00:59:04.791Z,4.96
2023-02-02T01:01:50.378Z,5.03
2023-02-02T01:04:35.836Z,4.91
2023-02-02T01:07:21.196Z,4.79
2023-02-02T01:10:10.792Z,4.68
2023-02-02T01:12:56.534Z,4.71
2023-02-02T01:15:41.991Z,4.78
2023-02-02T01:18:27.612Z,4.79
2023-02-02T01:21:12.911Z,4.66
2023-02-02T01:23:58.427Z,4.67
2023-02-02T01:26:44.033Z,4.75
2023-02-02T01:29:29.545Z,4.78
2023-02-02T01:32:15.452Z,4.89
2023-02-02T01:35:00.784Z,4.87
2023-02-02T01:37:46.184Z,4.86
2023-02-02T01:40:31.521Z,4.87
2023-02-02T01:43:25.585Z,4.92
2023-02-02T01:46:22.427Z,4.98
2023-02-02T01:49:16.418Z,4.92
2023-02-02T01:52:01.786Z,4.79
2023-02-02T01:54:57.888Z,4.79
2023-02-02T01:58:00.557Z,4.89
2023-02-02T02:00:47.177Z,4.85
2023-02-02T02:03:36.008Z,4.94
2023-02-02T02:06:22.040Z,5.01
2023-02-02T02:09:07.953Z,4.96
2023-02-02T02:11:54.597Z,5.02
2023-02-02T02:14:58.999Z,4.94
2023-02-02T02:17:55.458Z,4.98
2023-02-02T02:21:33.176Z,4.98
2023-02-02T02:24:49.471Z,5.01
2023-02-02T02:28:01.012Z,5.02
2023-02-02T02:31:20.321Z,5.06
2023-02-02T02:34:22.300Z,4.93
2023-02-02T02:37:18.781Z,5.15
2023-02-02T02:40:22.432Z,5.18
2023-02-02T02:43:17.340Z,5.19
2023-02-02T02:46:03.939Z,5.22
2023-02-02T02:48:50.370Z,5.28
2023-02-02T02:51:43.504Z,5.24
2023-02-02T02:54:54.075Z,5.25
2023-02-02T02:57:45.119Z,5.33
2023-02-02T03:00:54.042Z,5.31
2023-02-02T03:04:14.671Z,5.36
2023-02-02T03:07:22.872Z,5.37
2023-02-02T03:10:12.328Z,5.41
2023-02-02T03:12:58.356Z,5.40
2023-02-02T03:15:45.826Z,5.43
2023-02-02T03:18:33.072Z,5.48
2023-02-02T03:21:18.487Z,5.48
2023-02-02T03:24:03.966Z,5.41
2023-02-02T03:26:49.731Z,5.38
2023-02-02T03:29:34.934Z,5.41
2023-02-02T03:32:20.535Z,5.36
2023-02-02T03:35:06.531Z,5.46
2023-02-02T03:37:52.843Z,5.47
2023-02-02T03:40:39.360Z,5.38
2023-02-02T03:43:25.026Z,5.39
2023-02-02T03:46:10.825Z,5.35
2023-02-02T03:48:56.094Z,5.44
2023-02-02T03:51:43.122Z,5.46
2023-02-02T03:54:28.887Z,5.41
2023-02-02T03:57:14.260Z,5.41
2023-02-02T03:59:59.502Z,5.33
2023-02-02T04:02:44.785Z,5.19
2023-02-02T04:05:30.411Z,5.21
2023-02-02T04:08:16.158Z,5.20
2023-02-02T04:11:01.713Z,5.19
2023-02-02T04:13:47.259Z,5.14
2023-02-02T04:16:34.811Z,5.12
2023-02-02T04:19:20.421Z,5.04
2023-02-02T04:22:05.837Z,5.13
2023-02-02T04:24:51.759Z,5.14
2023-02-02T04:27:37.452Z,5.09
2023-02-02T04:30:22.877Z,5.06
2023-02-02T04:33:08.205Z,5.06
2023-02-02T04:35:54.246Z,5.09
2023-02-02T04:38:39.704Z,5.11
2023-02-02T04:41:25.501Z,5.05
2023-02-02T04:44:15.396Z,5.04
2023-02-02T04:47:01.053Z,5.07
2023-02-02T04:49:46.678Z,5.10
2023-02-02T04:52:32.408Z,5.11
2023-02-02T04:55:17.845Z,5.09
2023-02-02T04:58:03.338Z,4.99
2023-02-02T05:00:48.797Z,4.90
2023-02-02T05:03:34.222Z,4.72
2023-02-02T05:06:19.883Z,4.60
2023-02-02T05:09:05.348Z,4.73
2023-02-02T05:11:51.203Z,4.66
2023-02-02T05:14:36.932Z,4.82
2023-02-02T05:17:22.290Z,4.80
2023-02-02T05:20:08.942Z,4.79
2023-02-02T05:22:54.266Z,4.74
2023-02-02T05:25:39.662Z,4.72
2023-02-02T05:28:25.314Z,4.62
2023-02-02T05:31:10.845Z,4.74
2023-02-02T05:33:56.330Z,4.82
2023-02-02T05:36:41.582Z,4.91
2023-02-02T05:39:27.053Z,4.76
2023-02-02T05:42:12.584Z,4.60
2023-02-02T05:44:57.918Z,4.70
2023-02-02T05:47:43.440Z,4.78
2023-02-02T05:50:28.680Z,4.83
2023-02-02T05:53:14.423Z,4.94
2023-02-02T05:55:59.683Z,4.78
2023-02-02T05:58:47.205Z,4.53
2023-02-02T06:01:32.736Z,4.46
2023-02-02T06:04:18.152Z,4.57
2023-02-02T06:07:03.702Z,4.63
2023-02-02T06:09:49.448Z,4.71
2023-02-02T06:12:35.081Z,4.78
2023-02-02T06:15:20.882Z,4.67
2023-02-02T06:18:08.181Z,4.67
2023-02-02T06:20:58.456Z,4.66
2023-02-02T06:23:45.757Z,4.62
2023-02-02T06:26:31.114Z,4.50
2023-02-02T06:29:16.678Z,4.49
2023-02-02T06:32:03.393Z,4.60
2023-02-02T06:34:48.827Z,4.64
2023-02-02T06:37:34.427Z,4.62
2023-02-02T06:40:20.163Z,4.55
2023-02-02T06:43:15.025Z,4.61
2023-02-02T06:46:00.888Z,4.80
2023-02-02T06:48:46.684Z,4.85
2023-02-02T06:51:32.454Z,4.83
2023-02-02T06:54:17.999Z,4.88
2023-02-02T06:57:03.659Z,4.79
2023-02-02T06:59:50.545Z,4.89
2023-02-02T07:02:36.135Z,4.74
2023-02-02T07:05:24.166Z,4.84
2023-02-02T07:08:10.142Z,4.95
2023-02-02T07:11:14.446Z,4.92
2023-02-02T07:14:00.917Z,4.87
2023-02-02T07:16:46.581Z,4.97
2023-02-02T07:19:32.161Z,5.02
2023-02-02T07:22:17.883Z,4.93
2023-02-02T07:25:03.516Z,4.92
2023-02-02T07:27:53.079Z,4.87
2023-02-02T07:30:38.647Z,4.84
2023-02-02T07:33:23.945Z,4.79
2023-02-02T07:36:11.370Z,4.92
2023-02-02T07:39:02.282Z,5.19
2023-02-02T07:41:47.745Z,5.42
2023-02-02T07:44:33.134Z,5.48
2023-02-02T07:47:18.883Z,5.52
2023-02-02T07:50:04.324Z,5.70
2023-02-02T07:52:49.720Z,5.72
2023-02-02T07:55:35.255Z,5.51
2023-02-02T07:58:20.862Z,5.35
2023-02-02T08:01:09.093Z,5.21
2023-02-02T08:03:56.661Z,5.23
2023-02-02T08:06:41.986Z,5.27
2023-02-02T08:09:27.637Z,5.12
2023-02-02T08:12:13.451Z,5.24
2023-02-02T08:14:59.032Z,5.17
2023-02-02T08:17:46.474Z,5.40
2023-02-02T08:20:31.922Z,5.46
2023-02-02T08:23:18.564Z,5.67
2023-02-02T08:26:11.520Z,5.70
2023-02-02T08:29:03.559Z,5.83
2023-02-02T08:31:49.021Z,6.01
2023-02-02T08:34:36.817Z,5.98
2023-02-02T08:37:22.459Z,6.05
2023-02-02T08:40:09.250Z,6.12
2023-02-02T08:42:55.161Z,6.46
2023-02-02T08:46:01.857Z,6.53
2023-02-02T08:48:49.046Z,6.78
2023-02-02T08:51:34.705Z,6.95
2023-02-02T08:54:20.151Z,7.15
2023-02-02T08:57:05.756Z,7.20
2023-02-02T08:59:51.416Z,7.45
2023-02-02T09:02:36.733Z,7.12
2023-02-02T09:05:22.553Z,6.58
2023-02-02T09:08:08.078Z,6.89
2023-02-02T09:10:53.809Z,6.78
2023-02-02T09:13:40.792Z,6.85
2023-02-02T09:16:27.096Z,6.90
2023-02-02T09:19:12.872Z,6.68
2023-02-02T09:21:58.503Z,6.76
2023-02-02T09:24:43.731Z,6.97
2023-02-02T09:27:29.215Z,7.00
2023-02-02T09:30:14.892Z,7.06
2023-02-02T09:33:00.581Z,7.43
2023-02-02T09:35:46.196Z,7.30
2023-02-02T09:38:31.909Z,7.77
2023-02-02T09:41:42.102Z,7.71
2023-02-02T09:44:50.898Z,7.54
2023-02-02T09:47:53.537Z,8.58
2023-02-02T09:50:58.826Z,10.22
2023-02-02T09:53:55.638Z,9.44
2023-02-02T09:56:45.045Z,8.88
2023-02-02T09:59:37.154Z,8.51
2023-02-02T10:02:38.643Z,8.76
2023-02-02T10:05:29.755Z,9.42
2023-02-02T10:08:34.379Z,10.18
2023-02-02T10:11:30.716Z,10.21
2023-02-02T10:14:30.736Z,10.27
2023-02-02T10:17:45.184Z,9.46
2023-02-02T10:21:02.098Z,9.49
2023-02-02T10:23:47.964Z,9.50
2023-02-02T10:26:39.584Z,11.45
2023-02-02T10:29:48.176Z,13.07
2023-02-02T10:32:39.373Z,11.41
2023-02-02T10:35:45.044Z,11.54
2023-02-02T10:38:46.333Z,13.53
2023-02-02T10:41:37.676Z,12.97
2023-02-02T10:44:25.714Z,13.12
2023-02-02T10:47:16.456Z,14.49
2023-02-02T10:50:22.472Z,12.60
2023-02-02T10:53:14.285Z,11.96
2023-02-02T10:56:06.867Z,11.67
2023-02-02T10:59:07.742Z,12.44
2023-02-02T11:01:53.433Z,15.54
2023-02-02T11:04:58.056Z,15.56
2023-02-02T11:07:43.530Z,14.41
2023-02-02T11:10:28.968Z,15.06
2023-02-02T11:13:26.485Z,12.73
2023-02-02T11:16:14.823Z,11.44
2023-02-02T11:19:00.801Z,11.49
2023-02-02T11:21:56.204Z,10.61
2023-02-02T11:24:47.229Z,10.37
2023-02-02T11:27:40.836Z,11.80
2023-02-02T11:30:29.237Z,13.04
2023-02-02T11:33:37.436Z,11.31
2023-02-02T11:36:22.787Z,11.64
2023-02-02T11:39:16.796Z,12.16
2023-02-02T11:42:07.384Z,12.36
2023-02-02T11:44:56.908Z,12.86
2023-02-02T11:47:43.776Z,12.56
2023-02-02T11:50:29.572Z,13.40
2023-02-02T11:53:26.651Z,14.61
2023-02-02T11:56:25.408Z,13.82
2023-02-02T11:59:31.799Z,12.32
2023-02-02T12:02:19.948Z,11.47
2023-02-02T12:05:11.485Z,10.17
2023-02-02T12:07:56.761Z,10.59
2023-02-02T12:10:49.287Z,10.46
2023-02-02T12:13:52.288Z,10.34
2023-02-02T12:17:20.549Z,11.12
2023-02-02T12:20:31.803Z,13.10
2023-02-02T12:23:40.486Z,13.61
2023-02-02T12:26:31.613Z,14.33
2023-02-02T12:29:33.481Z,14.93
2023-02-02T12:32:33.893Z,16.94
2023-02-02T12:35:22.018Z,18.53
2023-02-02T12:38:20.643Z,19.88
2023-02-02T12:41:27.691Z,20.03
2023-02-02T12:44:21.994Z,19.86
2023-02-02T12:47:44.493Z,20.80
2023-02-02T12:51:01.270Z,20.82
2023-02-02T12:54:33.311Z,17.03
2023-02-02T12:57:24.686Z,18.47
2023-02-02T13:00:56.347Z,17.61
2023-02-02T13:04:04.801Z,19.26
2023-02-02T13:07:38.211Z,21.05
2023-02-02T13:10:36.457Z,19.80
2023-02-02T13:13:31.278Z,20.79
2023-02-02T13:16:16.884Z,21.89
2023-02-02T13:19:10.265Z,20.31
2023-02-02T13:21:58.364Z,20.24
2023-02-02T13:24:48.163Z,19.52
2023-02-02T13:27:33.624Z,20.11
2023-02-02T13:30:32.414Z,18.95
2023-02-02T13:33:24.684Z,20.19
2023-02-02T13:36:19.293Z,20.65
2023-02-02T13:39:19.726Z,21.61
2023-02-02T13:42:16.731Z,18.35
2023-02-02T13:45:15.813Z,16.50
2023-02-02T13:48:30.151Z,16.22
2023-02-02T13:51:35.369Z,17.12
2023-02-02T13:54:47.256Z,16.00
2023-02-02T13:57:41.585Z,14.99
2023-02-02T14:00:33.385Z,16.51
2023-02-02T14:03:38.627Z,17.81
2023-02-02T14:06:26.799Z,17.41
2023-02-02T14:09:18.776Z,15.66
2023-02-02T14:12:07.951Z,14.84
2023-02-02T14:14:53.651Z,14.55
2023-02-02T14:17:39.171Z,14.07
2023-02-02T14:20:44.685Z,13.51
2023-02-02T14:23:51.111Z,13.55
2023-02-02T14:26:44.604Z,13.18
2023-02-02T14:29:31.384Z,12.69
2023-02-02T14:32:28.985Z,13.99
2023-02-02T14:35:14.939Z,14.43
2023-02-02T14:38:21.752Z,13.28
2023-02-02T14:41:44.937Z,12.27
2023-02-02T14:44:30.746Z,11.09
2023-02-02T14:47:48.096Z,10.71
2023-02-02T14:50:39.611Z,10.10
2023-02-02T14:53:34.391Z,9.63
2023-02-02T14:56:22.426Z,9.44
2023-02-02T14:59:24.120Z,9.44
2023-02-02T15:02:19.982Z,9.13
2023-02-02T15:05:38.729Z,9.04
2023-02-02T15:08:26.796Z,8.65
2023-02-02T15:11:31.884Z,8.67
2023-02-02T15:14:19.970Z,8.73
2023-02-02T15:17:07.120Z,8.38
2023-02-02T15:20:07.926Z,8.30
2023-02-02T15:23:19.193Z,8.29
2023-02-02T15:26:17.448Z,8.29
2023-02-02T15:29:07.821Z,8.29
2023-02-02T15:31:55.575Z,8.23
2023-02-02T15:34:46.765Z,8.25
2023-02-02T15:37:44.899Z,8.15
2023-02-02T15:40:32.215Z,7.95
2023-02-02T15:43:18.152Z,7.84
2023-02-02T15:46:10.867Z,7.51
2023-02-02T15:49:33.925Z,7.41
2023-02-02T15:52:27.626Z,7.20
2023-02-02T15:55:25.177Z,7.33
2023-02-02T15:58:31.598Z,7.02
2023-02-02T16:01:22.440Z,6.99
2023-02-02T16:04:08.462Z,6.75
2023-02-02T16:06:55.518Z,6.60
2023-02-02T16:09:41.786Z,6.54
2023-02-02T16:12:27.473Z,6.40
2023-02-02T16:15:20.422Z,6.25
2023-02-02T16:18:13.281Z,6.12
2023-02-02T16:21:02.104Z,6.00
2023-02-02T16:23:48.253Z,5.85
2023-02-02T16:26:35.461Z,5.87
2023-02-02T16:29:22.028Z,5.80
2023-02-02T16:32:22.287Z,5.80
2023-02-02T16:35:35.708Z,5.71
2023-02-02T16:38:33.572Z,5.61
2023-02-02T16:41:36.333Z,5.38
2023-02-02T16:44:38.761Z,5.40
2023-02-02T16:47:27.313Z,5.44
2023-02-02T16:50:27.206Z,5.34
2023-02-02T16:53:22.889Z,5.10
2023-02-02T16:56:09.881Z,5.11
2023-02-02T16:58:58.437Z,5.10
2023-02-02T17:01:49.638Z,5.07
2023-02-02T17:04:35.323Z,5.05
2023-02-02T17:07:21.812Z,4.95
2023-02-02T17:10:26.024Z,4.92
2023-02-02T17:13:30.015Z,4.76
2023-02-02T17:16:19.080Z,4.53
2023-02-02T17:19:04.552Z,4.37
2023-02-02T17:21:50.176Z,4.51
2023-02-02T17:24:35.968Z,4.66
2023-02-02T17:27:32.665Z,4.56
2023-02-02T17:30:19.843Z,4.52
2023-02-02T17:33:09.138Z,4.58
2023-02-02T17:35:56.267Z,4.72
2023-02-02T17:38:41.957Z,4.70
2023-02-02T17:41:27.705Z,4.69
2023-02-02T17:44:13.408Z,4.68
2023-02-02T17:46:59.006Z,4.39
2023-02-02T17:49:44.351Z,4.49
2023-02-02T17:52:30.099Z,4.58
2023-02-02T17:55:21.384Z,4.66
2023-02-02T17:58:06.746Z,4.72
2023-02-02T18:00:56.137Z,4.74
2023-02-02T18:03:44.860Z,4.93
2023-02-02T18:06:30.256Z,4.96
2023-02-02T18:09:15.780Z,5.06
2023-02-02T18:12:01.270Z,5.08
2023-02-02T18:14:47.021Z,5.04
2023-02-02T18:17:34.049Z,4.99
2023-02-02T18:20:20.509Z,5.34
2023-02-02T18:23:05.872Z,5.27
2023-02-02T18:25:52.770Z,5.35
2023-02-02T18:28:38.630Z,5.38
2023-02-02T18:31:24.526Z,5.25
2023-02-02T18:34:10.043Z,5.29
2023-02-02T18:36:55.577Z,5.27
2023-02-02T18:39:40.957Z,5.21
2023-02-02T18:42:32.116Z,5.40
2023-02-02T18:45:17.763Z,5.47
2023-02-02T18:48:03.522Z,5.48
2023-02-02T18:50:48.841Z,5.47
2023-02-02T18:53:34.703Z,5.48
2023-02-02T18:56:20.052Z,5.37
2023-02-02T18:59:06.710Z,5.39
2023-02-02T19:01:52.192Z,5.39
2023-02-02T19:04:37.773Z,5.40
2023-02-02T19:07:41.706Z,5.43
2023-02-02T19:10:27.988Z,5.46
2023-02-02T19:13:19.291Z,5.58
2023-02-02T19:16:14.375Z,5.60
2023-02-02T19:19:22.040Z,5.66
2023-02-02T19:22:17.466Z,5.52
2023-02-02T19:25:11.289Z,5.53
2023-02-02T19:27:58.355Z,5.61
2023-02-02T19:30:45.211Z,5.68
2023-02-02T19:33:39.510Z,5.62
2023-02-02T19:36:27.816Z,5.66
2023-02-02T19:39:18.462Z,5.57
2023-02-02T19:42:10.243Z,5.63
2023-02-02T19:44:56.515Z,5.72
2023-02-02T19:47:44.484Z,5.93
2023-02-02T19:50:38.752Z,5.76
2023-02-02T19:53:28.385Z,5.88
2023-02-02T19:56:37.722Z,5.77
2023-02-02T19:59:25.368Z,5.78
2023-02-02T20:02:38.197Z,5.78
2023-02-02T20:05:28.166Z,5.85
2023-02-02T20:08:28.138Z,5.87
2023-02-02T20:11:40.795Z,5.96
2023-02-02T20:14:33.109Z,5.90
2023-02-02T20:17:32.741Z,6.00
2023-02-02T20:20:32.376Z,5.94
2023-02-02T20:23:33.595Z,5.84
2023-02-02T20:26:28.826Z,5.99
2023-02-02T20:29:19.174Z,5.93
2023-02-02T20:32:08.221Z,5.95
2023-02-02T20:34:56.887Z,6.03
2023-02-02T20:37:42.717Z,6.00
2023-02-02T20:40:29.910Z,5.96
2023-02-02T20:43:16.006Z,5.98
2023-02-02T20:46:01.441Z,6.00
2023-02-02T20:48:48.124Z,5.95
2023-02-02T20:51:33.605Z,5.99
2023-02-02T20:54:19.672Z,5.97
2023-02-02T20:57:05.676Z,5.84
2023-02-02T20:59:57.359Z,5.85
2023-02-02T21:02:42.983Z,5.75
2023-02-02T21:05:28.451Z,5.74
2023-02-02T21:08:13.984Z,5.71
2023-02-02T21:10:59.972Z,5.64
2023-02-02T21:13:45.547Z,5.57
2023-02-02T21:16:30.819Z,5.58
2023-02-02T21:19:16.510Z,5.56
2023-02-02T21:22:02.146Z,5.53
2023-02-02T21:24:47.943Z,5.53
2023-02-02T21:27:33.696Z,5.37
2023-02-02T21:30:19.121Z,5.47
2023-02-02T21:33:05.946Z,5.46
2023-02-02T21:35:51.467Z,5.36
2023-02-02T21:38:36.842Z,5.37
2023-02-02T21:41:22.273Z,5.32
2023-02-02T21:44:16.050Z,5.32
2023-02-02T21:47:01.688Z,5.33
2023-02-02T21:49:47.476Z,5.20
2023-02-02T21:52:33.906Z,5.23
2023-02-02T21:55:35.390Z,5.31
2023-02-02T21:58:25.562Z,5.24
2023-02-02T22:01:33.094Z,5.19
2023-02-02T22:04:22.542Z,5.22
2023-02-02T22:07:15.014Z,5.24
2023-02-02T22:10:00.587Z,5.20
2023-02-02T22:12:46.340Z,5.15
2023-02-02T22:15:34.395Z,5.17
2023-02-02T22:18:21.925Z,5.08
2023-02-02T22:21:07.494Z,4.99
2023-02-02T22:23:53.175Z,5.14
2023-02-02T22:26:38.657Z,5.09
2023-02-02T22:29:24.625Z,5.11
2023-02-02T22:32:10.285Z,5.10
2023-02-02T22:34:55.762Z,5.09
2023-02-02T22:37:41.403Z,5.03
2023-02-02T22:40:28.623Z,5.04
2023-02-02T22:43:16.190Z,4.87
2023-02-02T22:46:01.812Z,4.97
2023-02-02T22:48:47.336Z,4.92
2023-02-02T22:51:32.951Z,4.94
2023-02-02T22:54:18.810Z,4.95
2023-02-02T22:57:04.087Z,4.85
2023-02-02T22:59:49.889Z,4.80
2023-02-02T23:02:35.781Z,4.82
2023-02-02T23:05:22.674Z,4.70
2023-02-02T23:08:08.377Z,4.72
2023-02-02T23:10:53.822Z,4.74
2023-02-02T23:13:39.420Z,4.77
2023-02-02T23:16:25.289Z,4.84
2023-02-02T23:19:10.986Z,4.81
2023-02-02T23:21:56.690Z,4.87
2023-02-02T23:24:41.989Z,4.91
2023-02-02T23:27:27.688Z,4.82
2023-02-02T23:30:14.522Z,4.89
2023-02-02T23:33:00.114Z,4.83
2023-02-02T23:35:45.640Z,4.82
2023-02-02T23:38:31.400Z,4.75
2023-02-02T23:41:16.613Z,4.76
2023-02-02T23:44:02.425Z,4.83
2023-02-02T23:46:48.742Z,4.72
2023-02-02T23:49:34.755Z,4.80
2023-02-02T23:52:20.433Z,4.88
2023-02-02T23:55:07.104Z,4.82
2023-02-02T23:57:52.798Z,4.83
